createdAt,value
2018-10-03T00:00:43.248Z,4.00
2018-10-03T00:03:11.675Z,3.70
2018-10-03T00:05:40.282Z,3.83
2018-10-03T00:08:08.823Z,3.97
2018-10-03T00:10:37.248Z,3.90
2018-10-03T00:13:05.759Z,4.23
2018-10-03T00:15:34.101Z,3.97
2018-10-03T00:18:02.415Z,4.17
2018-10-03T00:20:30.690Z,3.80
2018-10-03T00:22:59.288Z,4.20
2018-10-03T00:25:27.655Z,4.97
2018-10-03T00:27:56.014Z,3.93
2018-10-03T00:30:24.463Z,4.00
2018-10-03T00:32:52.826Z,3.50
2018-10-03T00:35:21.258Z,4.50
2018-10-03T00:37:49.611Z,4.07
2018-10-03T00:40:17.985Z,4.70
2018-10-03T00:42:46.372Z,4.10
2018-10-03T00:45:14.832Z,4.30
2018-10-03T00:47:43.149Z,4.00
2018-10-03T00:50:11.499Z,4.10
2018-10-03T00:52:39.860Z,3.80
2018-10-03T00:55:08.712Z,3.67
2018-10-03T00:57:37.043Z,3.70
2018-10-03T01:00:05.519Z,3.70
2018-10-03T01:02:33.920Z,4.07
2018-10-03T01:05:02.330Z,4.10
2018-10-03T01:07:30.755Z,3.70
2018-10-03T01:09:59.152Z,4.30
2018-10-03T01:12:27.647Z,4.33
2018-10-03T01:14:56.534Z,3.13
2018-10-03T01:17:24.830Z,4.63
2018-10-03T01:19:53.308Z,3.70
2018-10-03T01:22:21.717Z,3.80
2018-10-03T01:24:50.274Z,3.47
2018-10-03T01:27:18.705Z,3.97
2018-10-03T01:29:47.076Z,3.77
2018-10-03T01:32:15.387Z,3.10
2018-10-03T01:34:43.751Z,3.97
2018-10-03T01:37:12.019Z,3.87
2018-10-03T01:39:40.298Z,4.10
2018-10-03T01:42:08.646Z,3.33
2018-10-03T01:44:37.374Z,3.57
2018-10-03T01:47:05.670Z,3.40
2018-10-03T01:49:33.966Z,3.40
2018-10-03T01:52:02.282Z,3.60
2018-10-03T01:54:30.559Z,3.93
2018-10-03T01:56:58.895Z,3.37
2018-10-03T01:59:27.202Z,3.80
2018-10-03T02:01:55.547Z,3.47
2018-10-03T02:04:24.090Z,3.53
2018-10-03T02:06:59.183Z,3.63
2018-10-03T02:09:27.503Z,3.53
2018-10-03T02:12:12.750Z,3.23
2018-10-03T02:14:50.245Z,3.40
2018-10-03T02:17:38.151Z,3.10
2018-10-03T02:20:07.262Z,3.37
2018-10-03T02:22:48.673Z,3.53
2018-10-03T02:25:18.025Z,3.80
2018-10-03T02:27:46.341Z,3.27
2018-10-03T02:30:14.691Z,3.03
2018-10-03T02:32:42.994Z,3.40
2018-10-03T02:35:11.335Z,3.60
2018-10-03T02:37:39.641Z,3.70
2018-10-03T02:40:08.597Z,3.43
2018-10-03T02:42:36.941Z,3.60
2018-10-03T02:45:05.401Z,3.70
2018-10-03T02:47:33.970Z,3.43
2018-10-03T02:50:02.342Z,3.33
2018-10-03T02:52:33.210Z,3.77
2018-10-03T02:55:03.853Z,3.40
2018-10-03T02:57:32.887Z,3.73
2018-10-03T03:00:19.600Z,3.67
2018-10-03T03:02:47.919Z,3.57
2018-10-03T03:05:16.232Z,3.73
2018-10-03T03:07:53.270Z,4.03
2018-10-03T03:10:27.950Z,3.23
2018-10-03T03:12:56.295Z,3.43
2018-10-03T03:15:24.575Z,3.27
2018-10-03T03:17:52.921Z,3.93
2018-10-03T03:20:21.439Z,2.90
2018-10-03T03:22:59.573Z,2.87
2018-10-03T03:25:28.511Z,4.03
2018-10-03T03:27:56.887Z,3.43
2018-10-03T03:30:38.095Z,3.20
2018-10-03T03:33:09.829Z,3.33
2018-10-03T03:35:38.141Z,3.40
2018-10-03T03:38:06.837Z,4.00
2018-10-03T03:40:37.599Z,3.37
2018-10-03T03:43:05.886Z,3.50
2018-10-03T03:45:34.174Z,3.70
2018-10-03T03:48:02.459Z,3.67
2018-10-03T03:50:30.895Z,3.53
2018-10-03T03:52:59.183Z,3.23
2018-10-03T03:55:28.159Z,3.07
2018-10-03T03:57:56.479Z,3.70
2018-10-03T04:00:24.826Z,3.43
2018-10-03T04:02:53.224Z,3.53
2018-10-03T04:05:21.506Z,3.17
2018-10-03T04:07:49.804Z,3.30
2018-10-03T04:10:18.118Z,3.63
2018-10-03T04:12:46.413Z,3.60
2018-10-03T04:15:14.700Z,3.53
2018-10-03T04:17:43.059Z,3.53
2018-10-03T04:20:11.491Z,3.07
2018-10-03T04:22:40.050Z,4.00
2018-10-03T04:25:08.643Z,3.60
2018-10-03T04:27:36.998Z,3.87
2018-10-03T04:30:05.346Z,3.77
2018-10-03T04:32:33.607Z,4.30
2018-10-03T04:35:02.580Z,3.70
2018-10-03T04:37:30.879Z,3.50
2018-10-03T04:39:59.222Z,3.77
2018-10-03T04:42:27.542Z,3.53
2018-10-03T04:44:56.790Z,3.47
2018-10-03T04:47:25.083Z,3.60
2018-10-03T04:49:53.388Z,3.40
2018-10-03T04:52:21.847Z,3.43
2018-10-03T04:54:50.135Z,3.63
2018-10-03T04:57:18.767Z,3.17
2018-10-03T04:59:47.119Z,3.57
2018-10-03T05:02:15.439Z,3.40
2018-10-03T05:04:43.750Z,3.20
2018-10-03T05:07:12.092Z,3.87
2018-10-03T05:09:40.518Z,3.33
2018-10-03T05:12:08.905Z,3.60
2018-10-03T05:14:37.229Z,3.77
2018-10-03T05:17:05.560Z,3.53
2018-10-03T05:19:34.761Z,3.80
2018-10-03T05:22:03.119Z,3.33
2018-10-03T05:24:31.452Z,4.00
2018-10-03T05:26:59.884Z,3.37
2018-10-03T05:29:28.218Z,3.93
2018-10-03T05:31:56.590Z,3.13
2018-10-03T05:34:24.834Z,3.60
2018-10-03T05:36:53.115Z,3.67
2018-10-03T05:39:21.382Z,3.77
2018-10-03T05:41:49.740Z,3.60
2018-10-03T05:44:18.026Z,3.43
2018-10-03T05:46:46.309Z,4.07
2018-10-03T05:49:14.659Z,3.17
2018-10-03T05:51:42.950Z,3.57
2018-10-03T05:54:11.281Z,3.23
2018-10-03T05:56:39.656Z,3.30
2018-10-03T05:59:08.000Z,3.23
2018-10-03T06:01:36.305Z,3.37
2018-10-03T06:04:04.658Z,3.47
2018-10-03T06:06:33.026Z,3.40
2018-10-03T06:09:01.322Z,4.00
2018-10-03T06:11:29.645Z,3.13
2018-10-03T06:13:57.975Z,3.30
2018-10-03T06:16:26.277Z,3.33
2018-10-03T06:18:54.595Z,3.47
2018-10-03T06:21:22.855Z,3.63
2018-10-03T06:23:51.181Z,3.10
2018-10-03T06:26:19.515Z,3.07
2018-10-03T06:28:47.860Z,3.83
2018-10-03T06:31:16.161Z,3.50
2018-10-03T06:33:44.497Z,4.03
2018-10-03T06:36:12.836Z,3.50
2018-10-03T06:38:41.137Z,3.37
2018-10-03T06:41:09.470Z,3.53
2018-10-03T06:43:38.125Z,3.57
2018-10-03T06:46:06.500Z,3.47
2018-10-03T06:48:34.850Z,3.50
2018-10-03T06:51:03.350Z,3.53
2018-10-03T06:53:31.694Z,3.27
2018-10-03T06:56:00.079Z,3.87
2018-10-03T06:58:28.451Z,3.67
2018-10-03T07:00:57.163Z,5.07
2018-10-03T07:03:25.567Z,3.77
2018-10-03T07:05:54.208Z,4.13
2018-10-03T07:08:22.638Z,3.40
2018-10-03T07:10:51.444Z,3.23
2018-10-03T07:13:19.962Z,3.47
2018-10-03T07:15:48.382Z,3.80
2018-10-03T07:18:16.744Z,3.70
2018-10-03T07:20:45.087Z,3.73
2018-10-03T07:23:13.407Z,4.40
2018-10-03T07:25:41.863Z,3.40
2018-10-03T07:28:10.642Z,4.43
2018-10-03T07:30:39.074Z,3.33
2018-10-03T07:33:07.964Z,3.50
2018-10-03T07:35:36.394Z,3.03
2018-10-03T07:38:04.810Z,3.47
2018-10-03T07:40:33.218Z,2.70
2018-10-03T07:43:01.609Z,3.57
2018-10-03T07:45:29.924Z,3.23
2018-10-03T07:47:58.367Z,3.13
2018-10-03T07:50:26.863Z,2.93
2018-10-03T07:52:55.196Z,3.10
2018-10-03T07:55:23.598Z,2.90
2018-10-03T07:57:52.112Z,3.57
2018-10-03T08:00:25.475Z,3.77
2018-10-03T08:02:57.858Z,3.20
2018-10-03T08:05:26.576Z,3.77
2018-10-03T08:07:55.211Z,3.67
2018-10-03T08:10:23.499Z,3.23
2018-10-03T08:12:51.880Z,3.27
2018-10-03T08:15:20.296Z,3.00
2018-10-03T08:17:48.680Z,3.30
2018-10-03T08:20:17.006Z,2.73
2018-10-03T08:22:45.348Z,3.07
2018-10-03T08:25:13.650Z,2.90
2018-10-03T08:27:41.995Z,2.87
2018-10-03T08:30:11.206Z,3.10
2018-10-03T08:32:39.772Z,3.80
2018-10-03T08:35:08.291Z,3.20
2018-10-03T08:37:36.650Z,2.97
2018-10-03T08:40:05.469Z,2.80
2018-10-03T08:42:35.226Z,3.20
2018-10-03T08:45:03.904Z,2.50
2018-10-03T08:47:33.261Z,2.80
2018-10-03T08:50:01.720Z,2.77
2018-10-03T08:52:30.126Z,2.70
2018-10-03T08:54:58.453Z,2.53
2018-10-03T08:57:26.998Z,3.10
2018-10-03T08:59:55.508Z,2.60
2018-10-03T09:05:23.478Z,2.47
2018-10-03T09:10:49.563Z,2.30
2018-10-03T09:13:17.870Z,2.97
2018-10-03T09:15:47.072Z,2.93
2018-10-03T09:18:15.435Z,2.50
2018-10-03T09:20:44.063Z,2.50
2018-10-03T09:23:12.899Z,2.47
2018-10-03T09:25:41.276Z,2.47
2018-10-03T09:28:21.928Z,2.03
2018-10-03T09:30:50.659Z,2.57
2018-10-03T09:33:19.944Z,2.50
2018-10-03T09:35:48.460Z,2.73
2018-10-03T09:38:16.940Z,2.97
2018-10-03T09:40:46.017Z,2.07
2018-10-03T09:43:14.374Z,2.43
2018-10-03T09:45:42.883Z,2.53
2018-10-03T09:48:11.846Z,2.23
2018-10-03T09:50:49.006Z,2.67
2018-10-03T09:53:22.426Z,2.47
2018-10-03T09:55:50.834Z,2.87
2018-10-03T09:58:20.207Z,2.57
2018-10-03T10:00:53.995Z,2.10
2018-10-03T10:03:22.524Z,2.60
2018-10-03T10:05:51.030Z,2.07
2018-10-03T10:08:19.337Z,2.40
2018-10-03T10:10:48.897Z,2.17
2018-10-03T10:13:20.507Z,2.30
2018-10-03T10:15:48.826Z,2.10
2018-10-03T10:18:17.302Z,2.63
2018-10-03T10:20:45.738Z,2.97
2018-10-03T10:23:17.015Z,2.03
2018-10-03T10:25:45.413Z,2.33
2018-10-03T10:28:14.072Z,2.07
2018-10-03T10:30:42.636Z,2.23
2018-10-03T10:33:11.205Z,3.00
2018-10-03T10:35:39.626Z,2.43
2018-10-03T10:38:08.022Z,3.13
2018-10-03T10:40:36.597Z,2.80
2018-10-03T10:43:04.930Z,2.40
2018-10-03T10:45:33.444Z,2.37
2018-10-03T10:48:03.982Z,2.57
2018-10-03T10:50:32.339Z,2.50
2018-10-03T10:53:00.795Z,2.30
2018-10-03T10:55:29.717Z,2.20
2018-10-03T10:57:58.115Z,2.30
2018-10-03T11:00:26.594Z,2.20
2018-10-03T11:02:54.911Z,2.13
2018-10-03T11:05:23.798Z,2.30
2018-10-03T11:07:52.397Z,2.80
2018-10-03T11:10:20.898Z,2.20
2018-10-03T11:12:49.216Z,2.30
2018-10-03T11:15:19.338Z,2.53
2018-10-03T11:17:48.322Z,2.97
2018-10-03T11:20:16.818Z,2.90
2018-10-03T11:22:45.185Z,3.00
2018-10-03T11:25:13.643Z,2.80
2018-10-03T11:27:42.307Z,2.90
2018-10-03T11:30:10.680Z,3.10
2018-10-03T11:32:39.120Z,2.27
2018-10-03T11:35:07.802Z,2.07
2018-10-03T11:37:36.126Z,2.53
2018-10-03T11:40:04.564Z,3.33
2018-10-03T11:42:33.924Z,2.50
2018-10-03T11:45:02.375Z,2.87
2018-10-03T11:47:37.435Z,2.93
2018-10-03T11:50:06.018Z,2.63
2018-10-03T11:52:35.450Z,2.80
2018-10-03T11:55:03.930Z,2.70
2018-10-03T11:57:32.414Z,2.40
2018-10-03T12:05:44.552Z,2.47
2018-10-03T12:08:12.901Z,3.00
2018-10-03T12:10:41.232Z,2.50
2018-10-03T12:13:11.479Z,2.50
2018-10-03T12:15:41.390Z,2.10
2018-10-03T12:18:09.742Z,2.43
2018-10-03T12:20:38.250Z,2.70
2018-10-03T12:23:06.585Z,2.10
2018-10-03T12:25:35.679Z,3.93
2018-10-03T12:28:04.124Z,2.30
2018-10-03T12:30:32.598Z,2.93
2018-10-03T12:33:00.921Z,2.10
2018-10-03T12:35:33.647Z,1.90
2018-10-03T12:38:03.024Z,2.63
2018-10-03T12:40:32.123Z,2.27
2018-10-03T12:43:00.529Z,2.50
2018-10-03T12:45:30.925Z,2.40
2018-10-03T12:47:59.380Z,1.90
2018-10-03T12:50:28.100Z,2.43
2018-10-03T12:52:56.870Z,2.10
2018-10-03T12:55:27.951Z,2.63
2018-10-03T12:57:56.318Z,2.37
2018-10-03T13:00:30.110Z,2.20
2018-10-03T13:02:59.369Z,2.13
2018-10-03T13:05:28.515Z,2.03
2018-10-03T13:07:56.825Z,1.80
2018-10-03T13:10:24.896Z,1.97
2018-10-03T13:12:53.048Z,2.20
2018-10-03T13:15:21.317Z,2.10
2018-10-03T13:17:49.499Z,1.70
2018-10-03T13:20:17.633Z,1.73
2018-10-03T13:22:45.973Z,1.50
2018-10-03T13:25:14.114Z,1.53
2018-10-03T13:27:43.043Z,1.30
2018-10-03T13:30:11.938Z,1.40
2018-10-03T13:32:40.047Z,1.80
2018-10-03T13:35:08.213Z,1.50
2018-10-03T13:37:36.274Z,1.97
2018-10-03T13:40:06.565Z,1.43
2018-10-03T13:42:34.687Z,1.87
2018-10-03T13:45:02.932Z,1.53
2018-10-03T13:47:30.981Z,1.50
2018-10-03T13:49:59.114Z,1.60
2018-10-03T13:52:27.220Z,1.73
2018-10-03T13:54:55.313Z,1.63
2018-10-03T13:57:23.481Z,1.80
2018-10-03T13:59:51.574Z,2.00
2018-10-03T14:02:19.606Z,2.10
2018-10-03T14:04:47.971Z,2.37
2018-10-03T14:07:19.366Z,1.63
2018-10-03T14:09:47.542Z,1.90
2018-10-03T14:12:15.625Z,1.90
2018-10-03T14:14:43.775Z,2.07
2018-10-03T14:17:11.919Z,1.90
2018-10-03T14:19:40.089Z,1.80
2018-10-03T14:22:08.208Z,2.60
2018-10-03T14:24:36.472Z,1.73
2018-10-03T14:27:04.586Z,2.30
2018-10-03T14:29:32.687Z,1.90
2018-10-03T14:32:00.719Z,1.73
2018-10-03T14:34:28.790Z,2.20
2018-10-03T14:36:56.849Z,1.60
2018-10-03T14:39:26.062Z,1.80
2018-10-03T14:41:54.109Z,2.03
2018-10-03T14:44:22.149Z,1.90
2018-10-03T14:46:51.338Z,2.07
2018-10-03T14:49:20.157Z,1.80
2018-10-03T14:51:49.158Z,1.87
2018-10-03T14:54:17.185Z,1.80
2018-10-03T14:56:45.242Z,1.90
2018-10-03T14:59:13.320Z,2.07
2018-10-03T15:01:43.610Z,2.20
2018-10-03T15:04:12.715Z,2.00
2018-10-03T15:06:41.266Z,1.80
2018-10-03T15:09:15.750Z,2.00
2018-10-03T15:11:44.102Z,1.80
2018-10-03T15:14:17.768Z,2.00
2018-10-03T15:16:48.973Z,2.00
2018-10-03T15:19:20.425Z,2.00
2018-10-03T15:21:50.122Z,2.13
2018-10-03T15:24:18.275Z,2.73
2018-10-03T15:26:46.418Z,2.13
2018-10-03T15:29:14.457Z,2.17
2018-10-03T15:31:43.332Z,2.10
2018-10-03T15:34:11.563Z,2.10
2018-10-03T15:36:39.641Z,2.00
2018-10-03T15:39:08.272Z,2.43
2018-10-03T15:41:36.344Z,2.00
2018-10-03T15:44:04.762Z,2.10
2018-10-03T15:46:33.266Z,2.00
2018-10-03T15:49:01.342Z,2.47
2018-10-03T15:51:29.398Z,2.27
2018-10-03T15:53:57.482Z,2.50
2018-10-03T15:56:25.810Z,1.73
2018-10-03T15:58:54.088Z,2.07
2018-10-03T16:01:22.139Z,2.10
2018-10-03T16:03:50.233Z,2.23
2018-10-03T16:06:18.277Z,2.20
2018-10-03T16:08:46.363Z,2.30
2018-10-03T16:11:14.439Z,2.20
2018-10-03T16:13:42.518Z,2.30
2018-10-03T16:16:10.595Z,2.57
2018-10-03T16:18:38.683Z,2.57
2018-10-03T16:21:06.897Z,2.37
2018-10-03T16:23:34.999Z,2.70
2018-10-03T16:26:03.057Z,2.50
2018-10-03T16:28:31.186Z,2.27
2018-10-03T16:30:59.321Z,2.30
2018-10-03T16:33:27.456Z,2.20
2018-10-03T16:35:55.551Z,2.30
2018-10-03T16:38:23.594Z,2.70
2018-10-03T16:40:51.666Z,2.73
2018-10-03T16:43:19.718Z,2.30
2018-10-03T16:45:48.365Z,2.90
2018-10-03T16:48:16.996Z,2.47
2018-10-03T16:50:45.055Z,2.50
2018-10-03T16:53:13.426Z,2.40
2018-10-03T16:55:41.457Z,2.70
2018-10-03T16:58:09.542Z,2.73
2018-10-03T17:00:37.876Z,3.60
2018-10-03T17:03:06.303Z,2.40
2018-10-03T17:05:34.622Z,2.67
2018-10-03T17:08:02.896Z,2.50
2018-10-03T17:10:31.430Z,2.40
2018-10-03T17:12:59.767Z,2.53
2018-10-03T17:15:28.185Z,2.53
2018-10-03T17:17:56.524Z,2.03
2018-10-03T17:20:25.021Z,2.03
2018-10-03T17:22:53.458Z,2.20
2018-10-03T17:25:21.786Z,2.67
2018-10-03T17:27:50.318Z,2.77
2018-10-03T17:30:19.581Z,2.30
2018-10-03T17:32:47.955Z,3.07
2018-10-03T17:35:16.417Z,2.53
2018-10-03T17:37:44.773Z,2.63
2018-10-03T17:40:13.136Z,2.50
2018-10-03T17:42:41.412Z,2.90
2018-10-03T17:45:09.740Z,2.53
2018-10-03T17:47:38.074Z,2.23
2018-10-03T17:50:06.393Z,2.30
2018-10-03T17:52:34.726Z,3.13
2018-10-03T17:55:02.998Z,3.37
2018-10-03T17:57:31.224Z,2.70
2018-10-03T17:59:59.365Z,2.90
2018-10-03T18:02:27.622Z,2.83
2018-10-03T18:04:55.780Z,1.87
2018-10-03T18:07:23.845Z,2.43
2018-10-03T18:09:51.919Z,2.00
2018-10-03T18:12:19.986Z,2.17
2018-10-03T18:14:48.077Z,2.20
2018-10-03T18:17:16.140Z,2.60
2018-10-03T18:19:44.252Z,2.50
2018-10-03T18:22:12.313Z,2.20
2018-10-03T18:24:40.465Z,2.50
2018-10-03T18:27:08.541Z,2.57
2018-10-03T18:29:36.597Z,2.47
2018-10-03T18:32:04.723Z,2.53
2018-10-03T18:34:32.754Z,2.57
2018-10-03T18:37:01.488Z,2.17
2018-10-03T18:39:29.581Z,2.03
2018-10-03T18:41:57.638Z,2.10
2018-10-03T18:44:25.753Z,2.17
2018-10-03T18:46:53.895Z,2.57
2018-10-03T18:49:21.965Z,2.07
2018-10-03T18:51:50.048Z,2.13
2018-10-03T18:54:18.137Z,2.03
2018-10-03T18:56:46.158Z,2.67
2018-10-03T18:59:14.328Z,2.23
2018-10-03T19:01:42.397Z,2.87
2018-10-03T19:04:10.457Z,2.50
2018-10-03T19:06:38.492Z,2.90
2018-10-03T19:09:07.581Z,3.03
2018-10-03T19:11:35.936Z,2.60
2018-10-03T19:14:04.310Z,2.60
2018-10-03T19:16:32.659Z,2.70
2018-10-03T19:19:00.959Z,2.23
2018-10-03T19:21:29.285Z,2.13
2018-10-03T19:23:57.612Z,2.30
2018-10-03T19:26:25.967Z,2.40
2018-10-03T19:28:54.193Z,2.10
2018-10-03T19:31:22.557Z,2.43
2018-10-03T19:33:50.858Z,1.77
2018-10-03T19:36:19.330Z,2.70
2018-10-03T19:38:47.644Z,2.60
2018-10-03T19:41:15.928Z,2.33
2018-10-03T19:43:44.472Z,2.43
2018-10-03T19:46:12.766Z,2.80
2018-10-03T19:48:41.070Z,2.43
2018-10-03T19:51:09.377Z,2.70
2018-10-03T19:53:38.126Z,2.87
2018-10-03T19:56:06.447Z,2.53
2018-10-03T19:58:34.754Z,2.60
2018-10-03T20:01:03.065Z,2.03
2018-10-03T20:03:31.475Z,2.47
2018-10-03T20:05:59.814Z,2.40
2018-10-03T20:08:28.172Z,3.07
2018-10-03T20:10:56.467Z,2.63
2018-10-03T20:13:24.810Z,2.20
2018-10-03T20:15:53.123Z,2.70
2018-10-03T20:18:22.146Z,2.50
2018-10-03T20:20:51.032Z,3.10
2018-10-03T20:23:19.378Z,2.90
2018-10-03T20:25:56.922Z,3.00
2018-10-03T20:28:25.240Z,4.00
2018-10-03T20:30:54.051Z,3.47
2018-10-03T20:33:22.338Z,3.63
2018-10-03T20:35:50.650Z,4.27
2018-10-03T20:38:19.917Z,3.73
2018-10-03T20:40:49.903Z,3.63
2018-10-03T20:43:18.243Z,3.60
2018-10-03T20:45:46.671Z,2.80
2018-10-03T20:48:15.779Z,2.90
2018-10-03T20:50:44.131Z,2.70
2018-10-03T20:53:12.754Z,2.33
2018-10-03T20:55:41.102Z,2.80
2018-10-03T20:58:09.394Z,2.30
2018-10-03T21:00:37.829Z,3.03
2018-10-03T21:03:06.479Z,2.30
2018-10-03T21:05:34.985Z,2.03
2018-10-03T21:08:04.211Z,2.57
2018-10-03T21:10:32.722Z,2.50
2018-10-03T21:13:01.380Z,2.03
2018-10-03T21:15:29.866Z,2.30
2018-10-03T21:17:58.198Z,2.33
2018-10-03T21:20:26.944Z,2.20
2018-10-03T21:22:55.854Z,2.47
2018-10-03T21:25:24.312Z,2.20
2018-10-03T21:27:52.710Z,1.90
2018-10-03T21:30:21.122Z,1.80
2018-10-03T21:32:49.447Z,2.30
2018-10-03T21:35:17.741Z,2.37
2018-10-03T21:37:46.182Z,2.50
2018-10-03T21:40:14.503Z,2.07
2018-10-03T21:42:42.809Z,1.93
2018-10-03T21:45:11.169Z,2.07
2018-10-03T21:47:39.499Z,2.20
2018-10-03T21:50:07.908Z,2.27
2018-10-03T21:52:39.271Z,2.40
2018-10-03T21:55:07.636Z,2.23
2018-10-03T21:57:36.351Z,2.10
2018-10-03T22:00:05.934Z,1.93
2018-10-03T22:02:34.245Z,2.80
2018-10-03T22:05:02.658Z,2.57
2018-10-03T22:07:31.259Z,2.30
2018-10-03T22:09:59.776Z,2.07
2018-10-03T22:12:28.187Z,2.07
2018-10-03T22:14:56.562Z,1.90
2018-10-03T22:17:25.873Z,2.17
2018-10-03T22:19:55.873Z,2.30
2018-10-03T22:22:26.286Z,2.00
2018-10-03T22:24:54.540Z,2.50
2018-10-03T22:27:22.866Z,1.73
2018-10-03T22:29:54.355Z,2.37
2018-10-03T22:32:22.743Z,2.30
2018-10-03T22:34:51.980Z,2.10
2018-10-03T22:37:22.540Z,2.30
2018-10-03T22:39:52.359Z,1.90
2018-10-03T22:42:26.514Z,2.27
2018-10-03T22:44:55.148Z,2.30
2018-10-03T22:47:29.334Z,2.37
2018-10-03T22:50:01.035Z,2.33
2018-10-03T22:52:30.040Z,2.23
2018-10-03T22:55:04.149Z,2.13
2018-10-03T22:57:41.069Z,2.27
2018-10-03T23:00:09.892Z,2.10
2018-10-03T23:02:38.574Z,2.20
2018-10-03T23:05:06.854Z,2.30
2018-10-03T23:07:35.129Z,2.00
2018-10-03T23:10:03.409Z,1.80
2018-10-03T23:12:34.414Z,2.13
2018-10-03T23:15:02.769Z,1.80
2018-10-03T23:17:31.098Z,1.93
2018-10-03T23:19:59.788Z,2.00
2018-10-03T23:22:32.895Z,2.00
2018-10-03T23:25:01.603Z,1.73
2018-10-03T23:27:29.950Z,1.80
2018-10-03T23:29:58.252Z,1.77
2018-10-03T23:32:26.620Z,1.80
2018-10-03T23:34:54.913Z,1.80
2018-10-03T23:37:26.913Z,2.03
2018-10-03T23:39:56.524Z,2.00
2018-10-03T23:42:28.249Z,1.73
2018-10-03T23:44:57.692Z,2.13
2018-10-03T23:47:26.632Z,2.33
2018-10-03T23:49:55.165Z,1.90
2018-10-03T23:52:23.770Z,1.73
2018-10-03T23:54:52.130Z,1.50
2018-10-03T23:57:20.500Z,1.90
2018-10-03T23:59:49.039Z,2.10
